Time;durP1;ratioP1;P1;durP2;ratioP2;P2;SDS_P1;SDS_P2;PMS_P1;PMS_P2;Temp;Humidity;BMP_temperature;BMP_pressure;BME280_temperature;BME280_humidity;BME280_pressure;Samples;Min_cycle;Max_cycle;Signal;HPM_P1;HPM_P2
2021/01/28 00:04:47;;;;;;;6.67;5.53;;;;;;;;;;15537411;28;20192;-87
2021/01/28 00:12:18;;;;;;;6.77;4.87;;;;;;;;;;15520726;28;20642;-86
2021/01/28 00:19:45;;;;;;;8.03;5.17;;;;;;;;;;15535294;28;20219;-88
2021/01/28 00:27:12;;;;;;;8.93;5.30;;;;;;;;;;15554791;28;20211;-86
2021/01/28 00:34:40;;;;;;;6.37;4.47;;;;;;;;;;15558744;28;20727;-87
2021/01/28 00:42:08;;;;;;;6.27;4.43;;;;;;;;;;15591166;28;20607;-83
2021/01/28 00:49:38;;;;;;;4.47;4.07;;;;;;;;;;15535224;28;20260;-83
2021/01/28 00:57:06;;;;;;;6.77;4.57;;;;;;;;;;15530252;28;20212;-82
2021/01/28 01:04:34;;;;;;;7.47;4.73;;;;;;;;;;15514192;28;20215;-85
2021/01/28 01:12:01;;;;;;;6.57;5.03;;;;;;;;;;15531282;28;20208;-84
2021/01/28 01:19:33;;;;;;;6.43;4.30;;;;;;;;;;15532753;28;20575;-85
2021/01/28 01:27:14;;;;;;;5.10;4.00;;;;;;;;;;15597843;28;20207;-85
2021/01/28 01:34:46;;;;;;;7.20;4.13;;;3.00;58.60;;;;;;15560770;28;20266;-85
2021/01/28 01:42:13;;;;;;;4.83;4.10;;;;;;;;;;15546276;28;20579;-85
2021/01/28 01:49:44;;;;;;;6.07;4.00;;;;;;;;;;15527570;28;20658;-84
2021/01/28 01:57:14;;;;;;;7.17;4.60;;;;;;;;;;15529188;28;20661;-84
2021/01/28 02:04:59;;;;;;;5.37;3.70;;;;;;;;;;15546120;28;20191;-84
2021/01/28 02:13:02;;;;;;;4.23;3.33;;;;;;;;;;15446330;28;20684;-86
2021/01/28 02:20:47;;;;;;;4.80;3.80;;;;;;;;;;15539200;28;20212;-84
2021/01/28 02:28:20;;;;;;;6.17;3.90;;;;;;;;;;15540109;28;20180;-87
2021/01/28 02:35:50;;;;;;;4.13;3.60;;;;;;;;;;15540096;28;20223;-87
2021/01/28 02:43:23;;;;;;;6.47;4.07;;;;;;;;;;15539202;28;20240;-86
2021/01/28 02:51:21;;;;;;;4.77;4.10;;;;;;;;;;15523001;28;20203;-87
2021/01/28 02:58:56;;;;;;;4.80;4.13;;;;;;;;;;15538197;28;20246;-86
2021/01/28 03:06:26;;;;;;;5.77;4.60;;;;;;;;;;15538747;28;20174;-86
2021/01/28 03:13:56;;;;;;;7.33;4.97;;;;;;;;;;15538524;28;20215;-90
2021/01/28 03:21:39;;;;;;;8.07;5.50;;;;;;;;;;15537496;28;20299;-88
2021/01/28 03:29:25;;;;;;;7.47;5.70;;;;;;;;;;15535208;28;20306;-87
2021/01/28 03:36:53;;;;;;;8.73;6.13;;;;;;;;;;15556169;28;20596;-88
2021/01/28 03:44:28;;;;;;;8.30;6.20;;;3.50;59.40;;;;;;15536230;28;20243;-88
2021/01/28 03:51:57;;;;;;;7.67;6.03;;;;;;;;;;15518831;28;20207;-89
2021/01/28 03:59:44;;;;;;;7.63;6.13;;;;;;;;;;15534324;28;20616;-84
2021/01/28 04:07:24;;;;;;;8.40;6.53;;;;;;;;;;15534597;28;20191;-86
2021/01/28 04:14:53;;;;;;;9.00;6.37;;;;;;;;;;15533847;28;20727;-86
2021/01/28 04:22:21;;;;;;;17.53;7.60;;;;;;;;;;15532221;28;20249;-85
2021/01/28 04:29:55;;;;;;;8.53;7.27;;;;;;;;;;15539820;28;20238;-88
2021/01/28 04:37:29;;;;;;;8.03;7.23;;;;;;;;;;15596480;28;20277;-86
2021/01/28 04:45:05;;;;;;;11.80;7.87;;;;;;;;;;15553384;28;20231;-86
2021/01/28 04:52:40;;;;;;;8.93;7.20;;;3.20;62.30;;;;;;15514537;28;20207;-86
2021/01/28 05:00:27;;;;;;;8.97;7.13;;;;;;;;;;15548121;28;20569;-84
2021/01/28 05:08:14;;;;;;;9.20;7.27;;;;;;;;;;15547329;28;20714;-84
2021/01/28 05:16:21;;;;;;;12.00;8.30;;;;;;;;;;15472688;28;20231;-85
2021/01/28 05:24:12;;;;;;;12.13;7.90;;;3.30;63.00;;;;;;15546987;28;20234;-86
2021/01/28 05:31:42;;;;;;;9.00;8.00;;;;;;;;;;15527293;28;20232;-84
2021/01/28 05:39:24;;;;;;;11.60;8.80;;;4.00;63.50;;;;;;15545113;28;20295;-84
2021/01/28 05:47:05;;;;;;;19.33;13.00;;;3.30;63.10;;;;;;15529330;28;20215;-86
2021/01/28 05:55:03;;;;;;;11.37;8.73;;;;;;;;;;15563604;28;20195;-87
2021/01/28 06:02:57;;;;;;;13.70;9.10;;;4.20;63.50;;;;;;15552643;28;20333;-84
2021/01/28 06:11:12;;;;;;;16.17;8.70;;;1.70;62.30;;;;;;15531493;28;20566;-85
2021/01/28 06:19:38;;;;;;;12.20;8.77;;;;;;;;;;15542316;28;20685;-88
2021/01/28 06:27:34;;;;;;;11.20;9.30;;;;;;;;;;15531460;28;20207;-86
2021/01/28 06:35:15;;;;;;;12.07;8.87;;;;;;;;;;15513128;28;20220;-88
2021/01/28 06:43:22;;;;;;;13.93;9.77;;;3.50;63.80;;;;;;15362928;28;20204;-88
2021/01/28 06:51:25;;;;;;;12.50;10.33;;;;;;;;;;15531438;28;20486;-83
2021/01/28 06:59:01;;;;;;;16.90;10.57;;;;;;;;;;15543217;28;20227;-83
2021/01/28 07:06:42;;;;;;;15.50;10.83;;;;;;;;;;15557198;28;20199;-85
2021/01/28 07:14:24;;;;;;;13.43;10.97;;;;;;;;;;15541560;28;20216;-86
2021/01/28 07:22:18;;;;;;;15.13;12.20;;;;;;;;;;15540254;28;20286;-87
2021/01/28 07:29:56;;;;;;;22.30;13.57;;;;;;;;;;15547357;28;20230;-87
2021/01/28 07:37:29;;;;;;;19.73;14.23;;;;;;;;;;15564664;28;20204;-88
2021/01/28 07:44:58;;;;;;;22.60;15.87;;;;;;;;;;15588698;28;20223;-90
2021/01/28 07:52:47;;;;;;;27.33;17.37;;;;;;;;;;15585294;28;20192;-89
2021/01/28 08:00:15;;;;;;;19.03;14.93;;;;;;;;;;15580129;28;20215;-89
2021/01/28 08:07:43;;;;;;;18.47;15.93;;;;;;;;;;15564859;28;20229;-89
2021/01/28 08:15:16;;;;;;;23.17;15.40;;;;;;;;;;15544827;28;20219;-91
2021/01/28 08:22:52;;;;;;;27.30;15.87;;;;;;;;;;15544931;28;20196;-89
2021/01/28 08:30:21;;;;;;;22.50;14.37;;;;;;;;;;15503961;28;20224;-89
2021/01/28 08:37:49;;;;;;;24.57;14.23;;;;;;;;;;15495434;28;20250;-89
2021/01/28 08:45:19;;;;;;;27.10;14.63;;;;;;;;;;15473237;28;20266;-85
2021/01/28 08:52:47;;;;;;;19.27;12.83;;;;;;;;;;15491950;28;20203;-83
2021/01/28 09:00:15;;;;;;;21.77;14.30;;;;;;;;;;15499500;28;20282;-84
2021/01/28 09:07:45;;;;;;;20.90;13.47;;;;;;;;;;15550786;28;20192;-79
2021/01/28 09:15:19;;;;;;;20.00;13.83;;;;;;;;;;15550192;28;20220;-84
2021/01/28 09:22:47;;;;;;;19.97;11.67;;;;;;;;;;15545615;28;20184;-82
2021/01/28 09:30:20;;;;;;;18.20;10.70;;;;;;;;;;15524173;28;20227;-81
2021/01/28 09:37:48;;;;;;;16.13;11.23;;;;;;;;;;15542404;28;20218;-83
2021/01/28 09:45:20;;;;;;;21.50;12.77;;;;;;;;;;15522805;28;20595;-79
2021/01/28 09:52:50;;;;;;;23.13;13.97;;;;;;;;;;15521500;28;20187;-80
2021/01/28 10:00:26;;;;;;;17.50;13.33;;;5.00;64.40;;;;;;15526659;28;20283;-81
2021/01/28 10:07:54;;;;;;;23.13;17.07;;;;;;;;;;15540096;28;20575;-81
2021/01/28 10:15:24;;;;;;;18.93;15.30;;;;;;;;;;15520001;28;20208;-83
2021/01/28 10:22:51;;;;;;;23.60;15.80;;;;;;;;;;15538693;28;20182;-83
2021/01/28 10:30:20;;;;;;;18.50;13.63;;;;;;;;;;15540749;28;20296;-84
2021/01/28 10:37:49;;;;;;;21.00;14.07;;;;;;;;;;15514894;28;20282;-84
2021/01/28 10:45:19;;;;;;;27.37;17.73;;;4.70;64.70;;;;;;15537780;28;20579;-84
2021/01/28 10:52:50;;;;;;;26.17;17.07;;;;;;;;;;15558258;28;20199;-84
2021/01/28 11:00:20;;;;;;;25.53;17.67;;;;;;;;;;15523969;28;20315;-84
2021/01/28 11:07:50;;;;;;;30.53;20.27;;;;;;;;;;15532751;28;20583;-85
2021/01/28 11:15:32;;;;;;;26.50;17.97;;;;;;;;;;15562185;28;20292;-86
2021/01/28 11:23:01;;;;;;;25.90;15.80;;;;;;;;;;15592039;28;20187;-85
2021/01/28 11:30:32;;;;;;;24.17;12.70;;;;;;;;;;15556911;28;20700;-82
2021/01/28 11:38:00;;;;;;;14.77;11.30;;;;;;;;;;15536797;28;20347;-82
2021/01/28 11:45:29;;;;;;;12.87;9.40;;;;;;;;;;15533783;28;20208;-82
2021/01/28 11:52:55;;;;;;;13.87;11.60;;;;;;;;;;15552234;28;20198;-83
2021/01/28 12:00:25;;;;;;;20.17;13.17;;;;;;;;;;15533660;28;20634;-86
2021/01/28 12:07:54;;;;;;;22.10;13.70;;;;;;;;;;15532967;28;20196;-85
2021/01/28 12:15:24;;;;;;;16.93;12.27;;;;;;;;;;15527800;28;20216;-84
2021/01/28 12:22:54;;;;;;;18.33;11.93;;;;;;;;;;15532033;28;20180;-84
2021/01/28 12:30:46;;;;;;;15.77;11.53;;;;;;;;;;15530162;28;20246;-85
2021/01/28 12:38:14;;;;;;;13.10;9.83;;;;;;;;;;15546738;28;20307;-83
2021/01/28 12:45:40;;;;;;;10.73;8.00;;;;;;;;;;15510086;28;20285;-83
2021/01/28 12:53:07;;;;;;;14.93;8.37;;;;;;;;;;15510877;28;20573;-83
2021/01/28 13:00:35;;;;;;;11.97;8.20;;;;;;;;;;15526330;28;20239;-79
2021/01/28 13:08:02;;;;;;;11.77;8.20;;;;;;;;;;15525090;28;20626;-81
2021/01/28 13:15:35;;;;;;;12.30;7.77;;;;;;;;;;15543021;28;20212;-82
2021/01/28 13:23:04;;;;;;;11.47;9.13;;;;;;;;;;15526605;28;20188;-81
2021/01/28 13:30:33;;;;;;;20.10;10.90;;;;;;;;;;15524947;28;20544;-82
2021/01/28 13:38:02;;;;;;;14.00;10.60;;;;;;;;;;15522451;28;20755;-81
2021/01/28 13:45:35;;;;;;;14.80;10.43;;;;;;;;;;15541210;28;20216;-77
2021/01/28 13:53:06;;;;;;;16.80;11.40;;;;;;;;;;15507729;28;20224;-77
2021/01/28 14:00:36;;;;;;;17.20;11.63;;;;;;;;;;15487515;28;20232;-79
2021/01/28 14:08:07;;;;;;;12.37;10.07;;;;;;;;;;15520365;28;20283;-77
2021/01/28 14:15:42;;;;;;;13.93;10.33;;;;;;;;;;15531501;28;20257;-77
2021/01/28 14:23:12;;;;;;;12.03;9.23;;;;;;;;;;15533661;28;20233;-77
2021/01/28 14:30:42;;;;;;;15.47;10.13;;;6.90;59.90;;;;;;15532833;28;20254;-76
2021/01/28 14:38:16;;;;;;;17.17;10.23;;;;;;;;;;15532519;28;20508;-77
2021/01/28 14:45:48;;;;;;;15.33;10.50;;;;;;;;;;15532053;28;20645;-77
2021/01/28 14:53:21;;;;;;;15.20;11.57;;;;;;;;;;15515489;28;20291;-78
2021/01/28 15:00:50;;;;;;;17.37;12.40;;;;;;;;;;15528936;28;20204;-77
2021/01/28 15:08:19;;;;;;;17.57;13.07;;;;;;;;;;15468869;28;20205;-77
2021/01/28 15:15:46;;;;;;;17.73;13.33;;;;;;;;;;15485106;28;20220;-75
2021/01/28 15:23:17;;;;;;;22.00;14.13;;;;;;;;;;15485028;28;20275;-76
2021/01/28 15:30:55;;;;;;;24.00;14.50;;;;;;;;;;15529884;28;20281;-82
2021/01/28 15:38:23;;;;;;;20.73;14.17;;;;;;;;;;15515086;28;20238;-85
2021/01/28 15:45:55;;;;;;;22.77;17.87;;;;;;;;;;15530196;28;20300;-81
2021/01/28 15:53:25;;;;;;;22.53;16.80;;;;;;;;;;15531027;28;20433;-81
2021/01/28 16:00:52;;;;;;;24.43;15.83;;;;;;;;;;15545137;28;20208;-81
2021/01/28 16:08:21;;;;;;;22.93;16.17;;;;;;;;;;15530956;28;20280;-82
2021/01/28 16:15:55;;;;;;;24.43;16.83;;;;;;;;;;15548158;28;20223;-82
2021/01/28 16:23:26;;;;;;;23.80;16.80;;;;;;;;;;15527748;28;20183;-81
2021/01/28 16:30:55;;;;;;;20.60;15.37;;;;;;;;;;15526964;28;20211;-80
2021/01/28 16:38:23;;;;;;;24.40;16.17;;;;;;;;;;15548560;28;20290;-81
2021/01/28 16:45:51;;;;;;;23.70;16.33;;;;;;;;;;15551311;28;20215;-81
2021/01/28 16:53:20;;;;;;;24.40;15.30;;;;;;;;;;15526317;28;20207;-82
2021/01/28 17:00:47;;;;;;;25.00;16.33;;;;;;;;;;15509971;28;20227;-82
2021/01/28 17:08:15;;;;;;;21.30;15.33;;;;;;;;;;15544261;28;20199;-81
2021/01/28 17:15:43;;;;;;;25.30;17.93;;;;;;;;;;15544116;28;20212;-81
2021/01/28 17:23:12;;;;;;;21.13;16.93;;;;;;;;;;15524249;28;20231;-83
2021/01/28 17:30:39;;;;;;;25.87;17.63;;;;;;;;;;15543449;28;20219;-82
2021/01/28 17:38:08;;;;;;;20.43;17.03;;;;;;;;;;15524858;28;20277;-81
2021/01/28 17:45:36;;;;;;;21.37;15.80;;;;;;;;;;15524921;28;20215;-81
2021/01/28 17:53:06;;;;;;;17.10;14.43;;;;;;;;;;15523414;28;20665;-81
2021/01/28 18:00:34;;;;;;;18.67;15.00;;;;;;;;;;15525486;28;20215;-83
2021/01/28 18:08:02;;;;;;;22.93;14.17;;;;;;;;;;15511466;28;20188;-83
2021/01/28 18:15:29;;;;;;;18.13;14.90;;;;;;;;;;15525557;28;20674;-83
2021/01/28 18:22:57;;;;;;;20.27;15.63;;;;;;;;;;15526066;28;20768;-83
2021/01/28 18:30:25;;;;;;;28.03;15.23;;;;;;;;;;15508553;28;20236;-81
2021/01/28 18:37:55;;;;;;;24.43;14.93;;;;;;;;;;15506679;28;20289;-83
2021/01/28 18:45:23;;;;;;;22.13;15.17;;;;;;;;;;15521602;28;20216;-81
2021/01/28 18:52:50;;;;;;;19.63;16.00;;;;;;;;;;15506273;28;20670;-82
2021/01/28 19:00:19;;;;;;;21.70;15.17;;;;;;;;;;15530669;28;20231;-82
2021/01/28 19:07:47;;;;;;;19.50;14.70;;;;;;;;;;15552467;28;20180;-81
2021/01/28 19:15:14;;;;;;;18.63;14.80;;;;;;;;;;15516750;28;20247;-79
2021/01/28 19:22:41;;;;;;;18.47;13.57;;;;;;;;;;15533786;28;20215;-81
2021/01/28 19:30:09;;;;;;;18.43;13.73;;;;;;;;;;15533629;28;20611;-82
2021/01/28 19:37:36;;;;;;;17.37;12.60;;;;;;;;;;15549619;28;20669;-81
2021/01/28 19:45:03;;;;;;;17.63;12.90;;;;;;;;;;15532039;28;20211;-82
2021/01/28 19:52:32;;;;;;;16.63;12.83;;;;;;;;;;15551477;28;20195;-81
2021/01/28 20:00:00;;;;;;;17.23;12.70;;;;;;;;;;15531978;28;20231;-82
2021/01/28 20:07:27;;;;;;;14.93;12.27;;;;;;;;;;15548394;28;20215;-82
2021/01/28 20:14:55;;;;;;;17.73;13.47;;;;;;;;;;15531243;28;20208;-83
2021/01/28 20:22:22;;;;;;;14.80;12.97;;;;;;;;;;15548980;28;20248;-82
2021/01/28 20:29:51;;;;;;;14.80;12.87;;;;;;;;;;15548021;28;20306;-82
2021/01/28 20:37:22;;;;;;;13.77;12.00;;;;;;;;;;15530135;28;20244;-82
2021/01/28 20:44:49;;;;;;;12.63;11.27;;;;;;;;;;15529676;28;20212;-83
2021/01/28 20:52:16;;;;;;;12.93;11.53;;;;;;;;;;15529270;28;20740;-83
2021/01/28 20:59:44;;;;;;;16.50;13.50;;;;;;;;;;15512649;28;20561;-82
2021/01/28 21:07:11;;;;;;;16.90;12.77;;;;;;;;;;15528599;28;20180;-83
2021/01/28 21:14:38;;;;;;;13.60;12.17;;;;;;;;;;15530192;28;20212;-83
2021/01/28 21:22:06;;;;;;;12.10;10.93;;;;;;;;;;15528281;28;20228;-75
2021/01/28 21:29:33;;;;;;;10.93;9.83;;;;;;;;;;15545189;28;20256;-76
2021/01/28 21:37:00;;;;;;;9.47;8.57;;;;;;;;;;15509608;28;20618;-75
2021/01/28 21:44:28;;;;;;;11.40;10.23;;;;;;;;;;15527868;28;20304;-83
2021/01/28 21:51:55;;;;;;;11.50;10.30;;;;;;;;;;15547070;28;20203;-83
2021/01/28 21:59:22;;;;;;;12.17;10.83;;;;;;;;;;15548947;28;20586;-85
2021/01/28 22:06:50;;;;;;;10.30;9.30;;;;;;;;;;15535199;28;20192;-83
2021/01/28 22:14:17;;;;;;;10.27;9.27;;;;;;;;;;15514988;28;20216;-82
2021/01/28 22:21:45;;;;;;;11.53;10.50;;;;;;;;;;15509751;28;20737;-82
2021/01/28 22:29:12;;;;;;;12.50;11.20;;;;;;;;;;15525971;28;20220;-83
2021/01/28 22:36:39;;;;;;;10.97;9.87;;;;;;;;;;15537549;28;20192;-82
2021/01/28 22:44:06;;;;;;;10.63;9.63;;;;;;;;;;15537861;28;20218;-83
2021/01/28 22:51:34;;;;;;;11.03;9.90;;;;;;;;;;15536717;28;20268;-83
2021/01/28 22:59:02;;;;;;;12.33;11.13;;;;;;;;;;15555525;28;20644;-83
2021/01/28 23:06:29;;;;;;;13.43;12.13;;;;;;;;;;15538281;28;20200;-84
2021/01/28 23:13:58;;;;;;;13.27;11.97;;;;;;;;;;15453317;28;20300;-75
2021/01/28 23:21:27;;;;;;;11.63;10.50;;;4.50;73.20;;;;;;15469744;28;20228;-75
2021/01/28 23:28:58;;;;;;;12.50;11.20;;;4.80;72.80;;;;;;15551557;28;20215;-76
2021/01/28 23:36:25;;;;;;;12.57;11.37;;;;;;;;;;15534517;28;20230;-75
2021/01/28 23:43:53;;;;;;;13.63;12.33;;;;;;;;;;15550511;28;20494;-77
2021/01/28 23:51:21;;;;;;;12.37;11.17;;;;;;;;;;15533891;28;20192;-75
2021/01/28 23:58:48;;;;;;;11.77;10.40;;;4.40;78.80;;;;;;15552098;28;20243;-76
